Heathsville, Illinois
Current Conditions -  °F | °C
As of 10:55 AM on Thursday 30 Oct 2014 (Local Time) from KRSV Reporting Station
Clear Clear  
Wind Chill: 11°   Ceiling: Unl
Heat Index: 11°   Visibility: 10mi
Dew Point:   Wind: 7mph
Humidity: 56%   Direction: 140°SE
Pressure: 30.18"   Gusts: NA
Location:  38.904°N, 87.665°W
Report Text: KRSV 301555Z AUTO 14006KT 10SM CLR 11/02 A3018 RMK AO2 T01070022
Loading
Personal Weather Stations






























Interactive Weather Map
Tropical Storm Tracking
New forecast layout! Learn more

10-Day Weather Forecast

Advertisements
Track Severe Weather on mobile